TimeCDT,TemperatureF,Dew PointF,Humidity,Sea Level PressureIn,VisibilityMPH,Wind Direction,Wind SpeedMPH,Gust SpeedMPH,PrecipitationIn,Events,Conditions,WindDirDegrees,DateUTC
12:53 AM,37.0,25.0,62,30.10,10.0,Calm,Calm,-,N/A,,Clear,0,2014-04-09 05:53:00
1:53 AM,35.1,25.0,67,30.10,10.0,SSW,3.5,-,N/A,,Clear,200,2014-04-09 06:53:00
2:53 AM,34.0,24.1,67,30.09,10.0,Calm,Calm,-,N/A,,Clear,0,2014-04-09 07:53:00
3:53 AM,34.0,24.1,67,30.09,10.0,Calm,Calm,-,N/A,,Clear,0,2014-04-09 08:53:00
4:53 AM,32.0,23.0,69,30.10,10.0,SSW,5.8,-,N/A,,Clear,210,2014-04-09 09:53:00
5:53 AM,33.1,23.0,66,30.10,10.0,South,5.8,-,N/A,,Clear,190,2014-04-09 10:53:00
6:53 AM,34.0,23.0,64,30.10,10.0,South,6.9,-,N/A,,Clear,190,2014-04-09 11:53:00
7:53 AM,37.9,26.1,62,30.10,10.0,South,6.9,-,N/A,,Clear,190,2014-04-09 12:53:00
8:53 AM,48.9,27.0,43,30.09,10.0,SSW,12.7,-,N/A,,Clear,200,2014-04-09 13:53:00
9:53 AM,55.9,26.1,32,30.07,9.0,SSW,13.8,-,N/A,,Clear,200,2014-04-09 14:53:00
10:53 AM,64.0,26.1,24,30.05,10.0,South,18.4,25.3,N/A,,Clear,190,2014-04-09 15:53:00
11:53 AM,66.9,26.1,21,30.02,10.0,South,21.9,29.9,N/A,,Clear,190,2014-04-09 16:53:00
12:53 PM,72.0,28.9,20,29.95,10.0,SSW,23.0,31.1,N/A,,Clear,200,2014-04-09 17:53:00
1:53 PM,73.9,30.0,20,29.91,10.0,South,24.2,35.7,N/A,,Clear,180,2014-04-09 18:53:00
2:53 PM,75.9,32.0,20,29.88,9.0,South,24.2,35.7,N/A,,Clear,190,2014-04-09 19:53:00
3:53 PM,78.1,33.1,19,29.83,10.0,SSW,19.6,32.2,N/A,,Clear,200,2014-04-09 20:53:00
4:53 PM,81.0,34.0,18,29.79,10.0,SSW,23.0,35.7,N/A,,Clear,200,2014-04-09 21:53:00
5:53 PM,80.1,35.1,20,29.77,10.0,SSW,19.6,34.5,N/A,,Clear,210,2014-04-09 22:53:00
6:53 PM,78.1,34.0,20,29.76,10.0,SSW,23.0,31.1,N/A,,Clear,200,2014-04-09 23:53:00
7:53 PM,73.0,35.1,25,29.75,10.0,South,11.5,-,N/A,,Clear,180,2014-04-10 00:53:00
8:53 PM,68.0,37.0,32,29.74,10.0,SSE,11.5,-,N/A,,Clear,160,2014-04-10 01:53:00
9:53 PM,68.0,37.0,32,29.75,6.0,South,13.8,-,N/A,,Haze,180,2014-04-10 02:53:00
10:53 PM,66.9,37.0,33,29.73,6.0,South,12.7,23.0,N/A,,Haze,190,2014-04-10 03:53:00
11:53 PM,66.0,37.9,36,29.73,7.0,SSW,19.6,25.3,N/A,,Clear,200,2014-04-10 04:53:00